sensor_id;sensor_type;location;lat;lon;timestamp;pressure;altitude;pressure_sealevel;temperature;humidity
17521;BME280;8878;-33.370;-70.552;2023-03-14T00:01:44;92091.84;;;29.83;35.54
17521;BME280;8878;-33.370;-70.552;2023-03-14T00:04:16;92096.13;;;29.84;35.96
17521;BME280;8878;-33.370;-70.552;2023-03-14T00:06:46;92094.13;;;29.63;36.32
17521;BME280;8878;-33.370;-70.552;2023-03-14T00:09:17;92103.44;;;29.51;37.27
17521;BME280;8878;-33.370;-70.552;2023-03-14T00:11:46;92097.94;;;29.37;37.21
17521;BME280;8878;-33.370;-70.552;2023-03-14T00:14:18;92101.72;;;29.22;37.91
17521;BME280;8878;-33.370;-70.552;2023-03-14T00:16:48;92106.00;;;29.23;37.34
17521;BME280;8878;-33.370;-70.552;2023-03-14T00:19:20;92096.28;;;29.15;37.84
17521;BME280;8878;-33.370;-70.552;2023-03-14T00:21:50;92110.19;;;29.06;38.28
17521;BME280;8878;-33.370;-70.552;2023-03-14T00:24:20;92104.72;;;28.99;37.99
17521;BME280;8878;-33.370;-70.552;2023-03-14T00:26:49;92100.91;;;29.04;38.03
17521;BME280;8878;-33.370;-70.552;2023-03-14T00:29:19;92095.38;;;28.86;38.68
17521;BME280;8878;-33.370;-70.552;2023-03-14T00:31:50;92098.81;;;28.79;38.50
17521;BME280;8878;-33.370;-70.552;2023-03-14T00:34:26;92099.25;;;28.89;38.46
17521;BME280;8878;-33.370;-70.552;2023-03-14T00:36:57;92112.81;;;28.81;38.56
17521;BME280;8878;-33.370;-70.552;2023-03-14T00:39:26;92120.94;;;28.81;38.48
17521;BME280;8878;-33.370;-70.552;2023-03-14T00:41:56;92114.66;;;28.70;39.10
17521;BME280;8878;-33.370;-70.552;2023-03-14T00:44:25;92112.22;;;28.55;39.39
17521;BME280;8878;-33.370;-70.552;2023-03-14T00:46:55;92105.97;;;28.51;39.30
17521;BME280;8878;-33.370;-70.552;2023-03-14T00:49:26;92108.28;;;28.45;39.65
17521;BME280;8878;-33.370;-70.552;2023-03-14T00:51:56;92101.63;;;28.39;39.41
17521;BME280;8878;-33.370;-70.552;2023-03-14T00:54:25;92100.72;;;28.21;40.06
17521;BME280;8878;-33.370;-70.552;2023-03-14T00:56:54;92100.59;;;28.10;40.43
17521;BME280;8878;-33.370;-70.552;2023-03-14T00:59:24;92103.63;;;27.98;40.65
17521;BME280;8878;-33.370;-70.552;2023-03-14T01:01:55;92099.75;;;27.99;40.74
17521;BME280;8878;-33.370;-70.552;2023-03-14T01:04:26;92094.53;;;27.80;40.82
17521;BME280;8878;-33.370;-70.552;2023-03-14T01:06:58;92092.19;;;27.78;41.03
17521;BME280;8878;-33.370;-70.552;2023-03-14T01:09:28;92093.22;;;27.63;41.08
17521;BME280;8878;-33.370;-70.552;2023-03-14T01:11:57;92101.06;;;27.75;41.01
17521;BME280;8878;-33.370;-70.552;2023-03-14T01:14:27;92095.34;;;27.84;41.05
17521;BME280;8878;-33.370;-70.552;2023-03-14T01:16:58;92092.31;;;27.92;41.25
17521;BME280;8878;-33.370;-70.552;2023-03-14T01:19:30;92094.22;;;27.88;40.88
17521;BME280;8878;-33.370;-70.552;2023-03-14T01:22:00;92082.84;;;27.72;40.02
17521;BME280;8878;-33.370;-70.552;2023-03-14T01:24:29;92081.00;;;27.46;40.44
17521;BME280;8878;-33.370;-70.552;2023-03-14T01:26:58;92081.56;;;27.25;40.75
17521;BME280;8878;-33.370;-70.552;2023-03-14T01:29:29;92086.13;;;27.18;40.42
17521;BME280;8878;-33.370;-70.552;2023-03-14T01:31:58;92089.56;;;27.48;40.06
17521;BME280;8878;-33.370;-70.552;2023-03-14T01:34:29;92092.25;;;27.11;40.72
17521;BME280;8878;-33.370;-70.552;2023-03-14T01:36:59;92089.31;;;27.27;40.14
17521;BME280;8878;-33.370;-70.552;2023-03-14T01:39:29;92085.56;;;27.35;40.09
17521;BME280;8878;-33.370;-70.552;2023-03-14T01:42:00;92092.75;;;27.24;40.29
17521;BME280;8878;-33.370;-70.552;2023-03-14T01:44:48;92085.06;;;27.26;40.16
17521;BME280;8878;-33.370;-70.552;2023-03-14T01:47:18;92083.94;;;27.31;40.21
17521;BME280;8878;-33.370;-70.552;2023-03-14T01:49:52;92081.91;;;27.57;40.55
17521;BME280;8878;-33.370;-70.552;2023-03-14T01:52:28;92096.84;;;27.78;39.16
17521;BME280;8878;-33.370;-70.552;2023-03-14T01:55:02;92094.75;;;27.60;38.88
17521;BME280;8878;-33.370;-70.552;2023-03-14T01:57:36;92091.59;;;27.55;38.67
17521;BME280;8878;-33.370;-70.552;2023-03-14T02:00:08;92101.59;;;27.17;39.91
17521;BME280;8878;-33.370;-70.552;2023-03-14T02:02:41;92090.13;;;27.31;39.96
17521;BME280;8878;-33.370;-70.552;2023-03-14T02:05:17;92098.25;;;27.64;39.08
17521;BME280;8878;-33.370;-70.552;2023-03-14T02:07:50;92094.94;;;27.45;39.69
17521;BME280;8878;-33.370;-70.552;2023-03-14T02:10:23;92099.13;;;27.05;40.48
17521;BME280;8878;-33.370;-70.552;2023-03-14T02:12:55;92084.78;;;27.38;40.21
17521;BME280;8878;-33.370;-70.552;2023-03-14T02:15:26;92086.44;;;27.46;40.54
17521;BME280;8878;-33.370;-70.552;2023-03-14T02:17:58;92081.78;;;27.47;40.60
17521;BME280;8878;-33.370;-70.552;2023-03-14T02:20:34;92091.44;;;27.11;41.52
17521;BME280;8878;-33.370;-70.552;2023-03-14T02:23:08;92080.88;;;27.32;41.02
17521;BME280;8878;-33.370;-70.552;2023-03-14T02:25:48;92078.75;;;27.52;41.05
17521;BME280;8878;-33.370;-70.552;2023-03-14T02:28:24;92073.41;;;27.59;41.08
17521;BME280;8878;-33.370;-70.552;2023-03-14T02:31:03;92068.13;;;27.73;41.21
17521;BME280;8878;-33.370;-70.552;2023-03-14T02:33:33;92080.34;;;27.53;41.30
17521;BME280;8878;-33.370;-70.552;2023-03-14T02:36:06;92079.88;;;27.51;41.16
17521;BME280;8878;-33.370;-70.552;2023-03-14T02:38:39;92079.00;;;27.40;42.32
17521;BME280;8878;-33.370;-70.552;2023-03-14T02:41:13;92076.84;;;27.19;42.99
17521;BME280;8878;-33.370;-70.552;2023-03-14T02:43:46;92078.25;;;27.06;43.27
17521;BME280;8878;-33.370;-70.552;2023-03-14T02:46:17;92073.44;;;26.92;43.01
17521;BME280;8878;-33.370;-70.552;2023-03-14T02:48:51;92073.31;;;26.85;42.81
17521;BME280;8878;-33.370;-70.552;2023-03-14T02:51:22;92069.97;;;26.95;42.81
17521;BME280;8878;-33.370;-70.552;2023-03-14T02:53:52;92073.13;;;26.97;43.13
17521;BME280;8878;-33.370;-70.552;2023-03-14T02:56:22;92073.97;;;27.05;42.87
17521;BME280;8878;-33.370;-70.552;2023-03-14T02:58:53;92079.75;;;27.03;42.87
17521;BME280;8878;-33.370;-70.552;2023-03-14T03:01:24;92074.41;;;26.80;43.57
17521;BME280;8878;-33.370;-70.552;2023-03-14T03:03:55;92067.63;;;26.64;44.07
17521;BME280;8878;-33.370;-70.552;2023-03-14T03:06:26;92063.56;;;26.50;44.42
17521;BME280;8878;-33.370;-70.552;2023-03-14T03:08:56;92052.22;;;26.68;44.20
17521;BME280;8878;-33.370;-70.552;2023-03-14T03:11:25;92050.47;;;26.82;43.40
17521;BME280;8878;-33.370;-70.552;2023-03-14T03:13:57;92064.69;;;26.76;43.59
17521;BME280;8878;-33.370;-70.552;2023-03-14T03:16:26;92062.59;;;26.62;43.84
17521;BME280;8878;-33.370;-70.552;2023-03-14T03:18:56;92058.78;;;26.67;43.63
17521;BME280;8878;-33.370;-70.552;2023-03-14T03:21:26;92059.03;;;26.58;44.26
17521;BME280;8878;-33.370;-70.552;2023-03-14T03:23:55;92056.66;;;26.53;44.25
17521;BME280;8878;-33.370;-70.552;2023-03-14T03:26:27;92055.88;;;26.52;44.39
17521;BME280;8878;-33.370;-70.552;2023-03-14T03:28:59;92056.63;;;26.49;43.69
17521;BME280;8878;-33.370;-70.552;2023-03-14T03:31:28;92056.63;;;26.49;43.51
17521;BME280;8878;-33.370;-70.552;2023-03-14T03:33:58;92065.03;;;26.44;43.63
17521;BME280;8878;-33.370;-70.552;2023-03-14T03:36:27;92063.28;;;26.29;43.70
17521;BME280;8878;-33.370;-70.552;2023-03-14T03:38:57;92066.41;;;26.31;44.01
17521;BME280;8878;-33.370;-70.552;2023-03-14T03:41:26;92062.19;;;26.34;44.35
17521;BME280;8878;-33.370;-70.552;2023-03-14T03:43:55;92077.81;;;25.53;45.89
17521;BME280;8878;-33.370;-70.552;2023-03-14T03:46:27;92070.56;;;25.34;46.09
17521;BME280;8878;-33.370;-70.552;2023-03-14T03:48:57;92073.72;;;24.98;47.63
17521;BME280;8878;-33.370;-70.552;2023-03-14T03:51:27;92077.69;;;25.04;47.49
17521;BME280;8878;-33.370;-70.552;2023-03-14T03:53:57;92074.13;;;25.61;46.26
17521;BME280;8878;-33.370;-70.552;2023-03-14T03:56:28;92075.81;;;25.69;46.09
17521;BME280;8878;-33.370;-70.552;2023-03-14T03:58:58;92074.81;;;26.00;45.55
17521;BME280;8878;-33.370;-70.552;2023-03-14T04:01:29;92077.19;;;25.82;46.17
17521;BME280;8878;-33.370;-70.552;2023-03-14T04:03:59;92075.09;;;25.95;45.85
17521;BME280;8878;-33.370;-70.552;2023-03-14T04:06:29;92079.22;;;25.66;46.06
17521;BME280;8878;-33.370;-70.552;2023-03-14T04:08:59;92078.00;;;26.09;45.37
17521;BME280;8878;-33.370;-70.552;2023-03-14T04:11:29;92077.53;;;26.26;44.91
17521;BME280;8878;-33.370;-70.552;2023-03-14T04:13:58;92080.03;;;26.16;45.18
17521;BME280;8878;-33.370;-70.552;2023-03-14T04:16:30;92070.13;;;26.23;45.05
17521;BME280;8878;-33.370;-70.552;2023-03-14T04:19:00;92060.22;;;26.31;44.87
17521;BME280;8878;-33.370;-70.552;2023-03-14T04:21:30;92073.38;;;26.32;45.11
17521;BME280;8878;-33.370;-70.552;2023-03-14T04:24:00;92060.75;;;26.17;45.71
17521;BME280;8878;-33.370;-70.552;2023-03-14T04:26:29;92063.72;;;26.08;45.53
17521;BME280;8878;-33.370;-70.552;2023-03-14T04:28:59;92059.16;;;26.12;45.93
17521;BME280;8878;-33.370;-70.552;2023-03-14T04:31:30;92066.56;;;25.93;46.30
17521;BME280;8878;-33.370;-70.552;2023-03-14T04:33:59;92063.44;;;25.91;45.94
17521;BME280;8878;-33.370;-70.552;2023-03-14T04:36:29;92055.03;;;25.96;46.12
17521;BME280;8878;-33.370;-70.552;2023-03-14T04:39:00;92059.59;;;25.92;45.81
17521;BME280;8878;-33.370;-70.552;2023-03-14T04:41:31;92048.72;;;25.88;45.97
17521;BME280;8878;-33.370;-70.552;2023-03-14T04:44:00;92046.63;;;25.55;46.23
17521;BME280;8878;-33.370;-70.552;2023-03-14T04:46:33;92040.22;;;25.63;45.81
17521;BME280;8878;-33.370;-70.552;2023-03-14T04:49:02;92029.53;;;25.70;45.50
17521;BME280;8878;-33.370;-70.552;2023-03-14T04:51:31;92028.69;;;25.66;45.70
17521;BME280;8878;-33.370;-70.552;2023-03-14T04:54:02;92033.53;;;25.57;46.32
17521;BME280;8878;-33.370;-70.552;2023-03-14T04:56:32;92029.69;;;25.58;45.90
17521;BME280;8878;-33.370;-70.552;2023-03-14T04:59:01;92026.13;;;25.31;47.10
17521;BME280;8878;-33.370;-70.552;2023-03-14T05:01:33;92029.00;;;25.19;47.03
17521;BME280;8878;-33.370;-70.552;2023-03-14T05:04:02;92024.00;;;25.41;46.98
17521;BME280;8878;-33.370;-70.552;2023-03-14T05:06:32;92015.69;;;25.30;46.56
17521;BME280;8878;-33.370;-70.552;2023-03-14T05:09:02;92020.69;;;25.28;46.31
17521;BME280;8878;-33.370;-70.552;2023-03-14T05:11:32;92007.28;;;25.12;46.15
17521;BME280;8878;-33.370;-70.552;2023-03-14T05:14:03;92010.72;;;25.32;46.17
17521;BME280;8878;-33.370;-70.552;2023-03-14T05:16:34;92001.84;;;25.31;46.29
17521;BME280;8878;-33.370;-70.552;2023-03-14T05:19:03;91989.53;;;25.34;46.73
17521;BME280;8878;-33.370;-70.552;2023-03-14T05:21:35;91996.06;;;25.33;46.31
17521;BME280;8878;-33.370;-70.552;2023-03-14T05:24:05;91987.78;;;25.45;45.67
17521;BME280;8878;-33.370;-70.552;2023-03-14T05:26:34;91989.41;;;25.27;46.10
17521;BME280;8878;-33.370;-70.552;2023-03-14T05:29:04;91992.31;;;24.95;46.08
17521;BME280;8878;-33.370;-70.552;2023-03-14T05:31:35;91982.91;;;25.09;46.86
17521;BME280;8878;-33.370;-70.552;2023-03-14T05:34:04;91987.97;;;25.33;46.21
17521;BME280;8878;-33.370;-70.552;2023-03-14T05:36:34;91989.72;;;25.45;46.69
17521;BME280;8878;-33.370;-70.552;2023-03-14T05:39:03;91984.72;;;25.47;45.83
17521;BME280;8878;-33.370;-70.552;2023-03-14T05:41:33;91984.81;;;25.50;45.89
17521;BME280;8878;-33.370;-70.552;2023-03-14T05:44:03;91985.16;;;25.49;46.40
17521;BME280;8878;-33.370;-70.552;2023-03-14T05:46:34;91983.16;;;25.46;45.98
17521;BME280;8878;-33.370;-70.552;2023-03-14T05:49:03;91984.56;;;25.36;45.98
17521;BME280;8878;-33.370;-70.552;2023-03-14T05:51:33;91974.03;;;25.08;46.27
17521;BME280;8878;-33.370;-70.552;2023-03-14T05:54:03;91977.81;;;25.04;46.71
17521;BME280;8878;-33.370;-70.552;2023-03-14T05:56:33;91979.25;;;24.59;48.06
17521;BME280;8878;-33.370;-70.552;2023-03-14T05:59:02;91978.13;;;24.60;47.83
17521;BME280;8878;-33.370;-70.552;2023-03-14T06:01:34;91976.81;;;25.12;47.23
17521;BME280;8878;-33.370;-70.552;2023-03-14T06:04:04;91969.63;;;25.19;47.61
17521;BME280;8878;-33.370;-70.552;2023-03-14T06:06:33;91964.25;;;25.23;46.98
17521;BME280;8878;-33.370;-70.552;2023-03-14T06:09:02;91966.38;;;25.10;46.71
17521;BME280;8878;-33.370;-70.552;2023-03-14T06:11:33;91962.06;;;25.28;46.75
17521;BME280;8878;-33.370;-70.552;2023-03-14T06:14:26;91972.09;;;24.86;47.56
17521;BME280;8878;-33.370;-70.552;2023-03-14T06:16:57;91978.94;;;25.22;47.33
17521;BME280;8878;-33.370;-70.552;2023-03-14T06:19:27;91995.25;;;25.29;47.03
17521;BME280;8878;-33.370;-70.552;2023-03-14T06:21:56;91982.03;;;25.24;47.64
17521;BME280;8878;-33.370;-70.552;2023-03-14T06:24:26;91984.22;;;25.15;47.28
17521;BME280;8878;-33.370;-70.552;2023-03-14T06:26:56;91973.91;;;25.01;47.34
17521;BME280;8878;-33.370;-70.552;2023-03-14T06:29:25;91983.22;;;25.04;47.25
17521;BME280;8878;-33.370;-70.552;2023-03-14T06:31:57;91987.19;;;25.10;47.59
17521;BME280;8878;-33.370;-70.552;2023-03-14T06:34:27;91987.59;;;25.12;46.97
17521;BME280;8878;-33.370;-70.552;2023-03-14T06:36:57;91988.16;;;25.21;47.08
17521;BME280;8878;-33.370;-70.552;2023-03-14T06:39:27;91983.47;;;25.18;47.03
17521;BME280;8878;-33.370;-70.552;2023-03-14T06:41:59;91988.19;;;25.02;47.62
17521;BME280;8878;-33.370;-70.552;2023-03-14T06:44:28;91988.69;;;24.88;47.79
17521;BME280;8878;-33.370;-70.552;2023-03-14T06:47:08;91988.97;;;24.83;48.20
17521;BME280;8878;-33.370;-70.552;2023-03-14T06:49:38;91990.97;;;24.67;48.70
17521;BME280;8878;-33.370;-70.552;2023-03-14T06:52:07;91995.75;;;24.54;48.92
17521;BME280;8878;-33.370;-70.552;2023-03-14T06:54:37;91986.56;;;24.39;49.16
17521;BME280;8878;-33.370;-70.552;2023-03-14T06:57:06;91996.31;;;24.44;48.95
17521;BME280;8878;-33.370;-70.552;2023-03-14T06:59:35;91989.63;;;24.38;49.06
17521;BME280;8878;-33.370;-70.552;2023-03-14T07:02:07;91999.56;;;24.34;49.42
17521;BME280;8878;-33.370;-70.552;2023-03-14T07:04:39;91987.78;;;24.23;49.41
17521;BME280;8878;-33.370;-70.552;2023-03-14T07:07:09;91991.63;;;24.22;49.44
17521;BME280;8878;-33.370;-70.552;2023-03-14T07:09:38;91982.47;;;24.45;49.49
17521;BME280;8878;-33.370;-70.552;2023-03-14T07:12:08;91982.06;;;24.43;49.41
17521;BME280;8878;-33.370;-70.552;2023-03-14T07:14:37;91976.72;;;24.28;48.79
17521;BME280;8878;-33.370;-70.552;2023-03-14T07:17:06;91973.88;;;24.21;49.26
17521;BME280;8878;-33.370;-70.552;2023-03-14T07:19:39;91968.22;;;24.10;48.70
17521;BME280;8878;-33.370;-70.552;2023-03-14T07:22:08;91969.31;;;24.25;48.45
17521;BME280;8878;-33.370;-70.552;2023-03-14T07:24:37;91957.97;;;24.15;48.85
17521;BME280;8878;-33.370;-70.552;2023-03-14T07:27:08;91959.41;;;24.48;47.97
17521;BME280;8878;-33.370;-70.552;2023-03-14T07:29:40;91953.44;;;24.58;48.01
17521;BME280;8878;-33.370;-70.552;2023-03-14T07:32:10;91950.19;;;24.30;47.88
17521;BME280;8878;-33.370;-70.552;2023-03-14T07:34:43;91944.66;;;24.23;48.02
17521;BME280;8878;-33.370;-70.552;2023-03-14T07:37:12;91946.34;;;24.50;47.74
17521;BME280;8878;-33.370;-70.552;2023-03-14T07:39:41;91945.06;;;24.63;47.95
17521;BME280;8878;-33.370;-70.552;2023-03-14T07:42:11;91939.50;;;24.75;47.46
17521;BME280;8878;-33.370;-70.552;2023-03-14T07:44:41;91933.53;;;24.66;47.57
17521;BME280;8878;-33.370;-70.552;2023-03-14T07:47:10;91940.22;;;24.53;47.82
17521;BME280;8878;-33.370;-70.552;2023-03-14T07:49:39;91940.22;;;24.53;48.01
17521;BME280;8878;-33.370;-70.552;2023-03-14T07:52:10;91943.06;;;24.60;47.69
17521;BME280;8878;-33.370;-70.552;2023-03-14T07:54:41;91957.28;;;24.57;47.61
17521;BME280;8878;-33.370;-70.552;2023-03-14T07:57:11;91955.72;;;24.56;47.41
17521;BME280;8878;-33.370;-70.552;2023-03-14T07:59:40;91957.94;;;24.50;47.94
17521;BME280;8878;-33.370;-70.552;2023-03-14T08:02:11;91950.47;;;24.44;47.56
17521;BME280;8878;-33.370;-70.552;2023-03-14T08:04:41;91949.34;;;24.10;47.58
17521;BME280;8878;-33.370;-70.552;2023-03-14T08:07:13;91951.03;;;24.34;48.02
17521;BME280;8878;-33.370;-70.552;2023-03-14T08:09:42;91947.91;;;24.32;47.98
17521;BME280;8878;-33.370;-70.552;2023-03-14T08:12:12;91954.31;;;24.43;47.40
17521;BME280;8878;-33.370;-70.552;2023-03-14T08:14:43;91948.00;;;24.35;47.78
17521;BME280;8878;-33.370;-70.552;2023-03-14T08:17:13;91957.56;;;24.33;48.55
17521;BME280;8878;-33.370;-70.552;2023-03-14T08:19:43;91961.53;;;24.39;48.11
17521;BME280;8878;-33.370;-70.552;2023-03-14T08:22:15;91946.75;;;24.52;47.74
17521;BME280;8878;-33.370;-70.552;2023-03-14T08:24:45;91948.84;;;24.39;47.97
17521;BME280;8878;-33.370;-70.552;2023-03-14T08:27:14;91944.66;;;24.23;48.33
17521;BME280;8878;-33.370;-70.552;2023-03-14T08:29:43;91949.47;;;24.33;48.17
17521;BME280;8878;-33.370;-70.552;2023-03-14T08:32:15;91945.00;;;24.21;48.27
17521;BME280;8878;-33.370;-70.552;2023-03-14T08:34:44;91959.34;;;24.09;48.93
17521;BME280;8878;-33.370;-70.552;2023-03-14T08:37:16;91953.91;;;24.06;48.70
17521;BME280;8878;-33.370;-70.552;2023-03-14T08:39:47;91943.63;;;24.11;48.82
17521;BME280;8878;-33.370;-70.552;2023-03-14T08:42:17;91949.72;;;24.08;48.59
17521;BME280;8878;-33.370;-70.552;2023-03-14T08:44:47;91945.19;;;24.12;48.67
17521;BME280;8878;-33.370;-70.552;2023-03-14T08:47:16;91943.97;;;24.10;48.62
17521;BME280;8878;-33.370;-70.552;2023-03-14T08:49:45;91950.97;;;23.95;49.51
17521;BME280;8878;-33.370;-70.552;2023-03-14T08:52:16;91946.50;;;23.84;49.62
17521;BME280;8878;-33.370;-70.552;2023-03-14T08:54:46;91946.63;;;23.91;49.81
17521;BME280;8878;-33.370;-70.552;2023-03-14T08:57:15;91945.06;;;23.90;49.92
17521;BME280;8878;-33.370;-70.552;2023-03-14T08:59:45;91960.06;;;24.06;49.69
17521;BME280;8878;-33.370;-70.552;2023-03-14T09:02:14;91960.91;;;24.10;49.37
17521;BME280;8878;-33.370;-70.552;2023-03-14T09:04:45;91959.34;;;24.09;49.35
17521;BME280;8878;-33.370;-70.552;2023-03-14T09:07:16;91970.34;;;24.01;49.27
17521;BME280;8878;-33.370;-70.552;2023-03-14T09:09:45;91963.88;;;23.86;50.06
17521;BME280;8878;-33.370;-70.552;2023-03-14T09:12:14;91960.16;;;23.75;50.20
17521;BME280;8878;-33.370;-70.552;2023-03-14T09:14:44;91963.00;;;23.82;49.65
17521;BME280;8878;-33.370;-70.552;2023-03-14T09:17:13;91968.22;;;23.75;49.93
17521;BME280;8878;-33.370;-70.552;2023-03-14T09:19:42;91965.69;;;23.82;49.77
17521;BME280;8878;-33.370;-70.552;2023-03-14T09:22:12;91967.59;;;23.81;49.89
17521;BME280;8878;-33.370;-70.552;2023-03-14T09:24:43;91968.56;;;23.73;49.87
17521;BME280;8878;-33.370;-70.552;2023-03-14T09:27:12;91969.47;;;23.62;50.66
17521;BME280;8878;-33.370;-70.552;2023-03-14T09:29:42;91966.94;;;23.69;50.40
17521;BME280;8878;-33.370;-70.552;2023-03-14T09:32:11;91967.03;;;23.72;49.68
17521;BME280;8878;-33.370;-70.552;2023-03-14T09:34:40;91964.19;;;23.65;49.99
17521;BME280;8878;-33.370;-70.552;2023-03-14T09:37:12;91962.78;;;23.56;50.27
17521;BME280;8878;-33.370;-70.552;2023-03-14T09:39:44;91966.09;;;23.65;50.43
17521;BME280;8878;-33.370;-70.552;2023-03-14T09:42:15;91966.38;;;22.41;52.91
17521;BME280;8878;-33.370;-70.552;2023-03-14T09:44:53;91978.34;;;22.04;54.40
17521;BME280;8878;-33.370;-70.552;2023-03-14T09:47:24;91965.94;;;21.99;54.68
17521;BME280;8878;-33.370;-70.552;2023-03-14T09:49:54;91975.22;;;21.89;55.00
17521;BME280;8878;-33.370;-70.552;2023-03-14T09:52:28;91972.47;;;21.74;55.57
17521;BME280;8878;-33.370;-70.552;2023-03-14T09:55:03;91959.78;;;21.74;55.43
17521;BME280;8878;-33.370;-70.552;2023-03-14T09:57:34;91972.25;;;21.67;54.81
17521;BME280;8878;-33.370;-70.552;2023-03-14T10:00:10;91957.69;;;21.68;55.11
17521;BME280;8878;-33.370;-70.552;2023-03-14T10:02:47;91965.31;;;21.54;55.74
17521;BME280;8878;-33.370;-70.552;2023-03-14T10:05:20;91962.97;;;21.64;55.68
17521;BME280;8878;-33.370;-70.552;2023-03-14T10:07:50;91961.41;;;21.63;55.30
17521;BME280;8878;-33.370;-70.552;2023-03-14T10:10:22;91968.66;;;21.63;55.58
17521;BME280;8878;-33.370;-70.552;2023-03-14T10:12:56;91967.22;;;21.53;55.42
17521;BME280;8878;-33.370;-70.552;2023-03-14T10:15:28;91976.47;;;21.68;55.49
17521;BME280;8878;-33.370;-70.552;2023-03-14T10:18:01;91974.16;;;21.54;55.79
17521;BME280;8878;-33.370;-70.552;2023-03-14T10:20:33;91980.72;;;21.69;55.73
17521;BME280;8878;-33.370;-70.552;2023-03-14T10:23:05;91979.03;;;21.76;55.10
17521;BME280;8878;-33.370;-70.552;2023-03-14T10:25:39;91977.25;;;21.68;55.50
17521;BME280;8878;-33.370;-70.552;2023-03-14T10:28:23;91979.53;;;21.66;55.90
17521;BME280;8878;-33.370;-70.552;2023-03-14T10:30:53;91978.63;;;21.62;55.91
17521;BME280;8878;-33.370;-70.552;2023-03-14T10:33:24;91988.69;;;21.53;56.07
17521;BME280;8878;-33.370;-70.552;2023-03-14T10:35:56;91983.78;;;21.43;56.68
17521;BME280;8878;-33.370;-70.552;2023-03-14T10:38:27;91987.34;;;21.47;56.26
17521;BME280;8878;-33.370;-70.552;2023-03-14T10:41:00;91989.16;;;21.43;57.07
17521;BME280;8878;-33.370;-70.552;2023-03-14T10:43:32;91988.22;;;21.39;56.80
17521;BME280;8878;-33.370;-70.552;2023-03-14T10:46:09;91988.13;;;21.47;57.01
17521;BME280;8878;-33.370;-70.552;2023-03-14T10:48:39;91987.00;;;21.61;56.61
17521;BME280;8878;-33.370;-70.552;2023-03-14T10:51:10;91981.97;;;21.71;56.35
17521;BME280;8878;-33.370;-70.552;2023-03-14T10:53:42;91984.75;;;21.75;56.12
17521;BME280;8878;-33.370;-70.552;2023-03-14T10:56:17;91992.66;;;21.96;55.27
17521;BME280;8878;-33.370;-70.552;2023-03-14T10:58:49;91992.72;;;21.59;55.21
17521;BME280;8878;-33.370;-70.552;2023-03-14T11:01:37;91981.88;;;21.43;55.29
17521;BME280;8878;-33.370;-70.552;2023-03-14T11:04:16;91984.56;;;21.43;54.99
17521;BME280;8878;-33.370;-70.552;2023-03-14T11:06:55;91979.75;;;21.49;54.91
17521;BME280;8878;-33.370;-70.552;2023-03-14T11:09:33;91977.03;;;21.61;54.97
17521;BME280;8878;-33.370;-70.552;2023-03-14T11:12:15;91977.16;;;21.77;54.25
17521;BME280;8878;-33.370;-70.552;2023-03-14T11:14:55;91983.06;;;21.82;53.99
17521;BME280;8878;-33.370;-70.552;2023-03-14T11:17:34;91979.50;;;21.54;54.55
17521;BME280;8878;-33.370;-70.552;2023-03-14T11:20:15;91971.03;;;21.64;54.77
17521;BME280;8878;-33.370;-70.552;2023-03-14T11:22:54;91981.16;;;21.83;54.65
17521;BME280;8878;-33.370;-70.552;2023-03-14T11:25:33;91993.38;;;21.80;54.76
17521;BME280;8878;-33.370;-70.552;2023-03-14T11:28:14;91991.13;;;21.95;54.62
17521;BME280;8878;-33.370;-70.552;2023-03-14T11:30:51;91989.09;;;21.92;54.67
17521;BME280;8878;-33.370;-70.552;2023-03-14T11:33:24;91985.19;;;22.01;54.76
17521;BME280;8878;-33.370;-70.552;2023-03-14T11:36:03;91983.47;;;22.21;53.66
17521;BME280;8878;-33.370;-70.552;2023-03-14T11:38:38;91984.44;;;22.29;54.07
17521;BME280;8878;-33.370;-70.552;2023-03-14T11:41:14;91990.09;;;22.39;53.65
17521;BME280;8878;-33.370;-70.552;2023-03-14T11:43:48;91978.88;;;22.49;53.29
17521;BME280;8878;-33.370;-70.552;2023-03-14T11:46:21;91993.38;;;22.60;53.46
17521;BME280;8878;-33.370;-70.552;2023-03-14T11:48:59;91989.66;;;22.77;52.75
17521;BME280;8878;-33.370;-70.552;2023-03-14T11:51:34;91983.00;;;22.87;52.82
17521;BME280;8878;-33.370;-70.552;2023-03-14T11:54:12;91981.59;;;22.93;52.59
17521;BME280;8878;-33.370;-70.552;2023-03-14T11:56:48;91984.56;;;23.03;52.42
17521;BME280;8878;-33.370;-70.552;2023-03-14T11:59:26;91981.88;;;23.03;51.48
17521;BME280;8878;-33.370;-70.552;2023-03-14T12:01:58;91980.94;;;23.27;51.88
17521;BME280;8878;-33.370;-70.552;2023-03-14T12:04:42;91983.25;;;22.97;52.65
17521;BME280;8878;-33.370;-70.552;2023-03-14T12:07:18;91980.38;;;22.90;53.36
17521;BME280;8878;-33.370;-70.552;2023-03-14T12:09:49;91978.56;;;22.94;53.52
17521;BME280;8878;-33.370;-70.552;2023-03-14T12:12:20;91977.09;;;22.97;53.34
17521;BME280;8878;-33.370;-70.552;2023-03-14T12:14:58;91985.56;;;22.55;54.43
17521;BME280;8878;-33.370;-70.552;2023-03-14T12:17:36;91982.81;;;22.67;54.42
17521;BME280;8878;-33.370;-70.552;2023-03-14T12:20:16;91981.63;;;22.65;54.62
17521;BME280;8878;-33.370;-70.552;2023-03-14T12:22:50;91982.53;;;22.57;54.98
17521;BME280;8878;-33.370;-70.552;2023-03-14T12:25:21;91978.88;;;22.49;54.97
17521;BME280;8878;-33.370;-70.552;2023-03-14T12:28:11;91986.84;;;22.74;54.93
17521;BME280;8878;-33.370;-70.552;2023-03-14T12:30:49;91983.47;;;22.77;54.46
17521;BME280;8878;-33.370;-70.552;2023-03-14T12:33:39;91985.69;;;23.02;53.77
17521;BME280;8878;-33.370;-70.552;2023-03-14T12:36:48;91990.69;;;22.33;55.38
17521;BME280;8878;-33.370;-70.552;2023-03-14T12:39:25;91995.09;;;22.81;54.76
17521;BME280;8878;-33.370;-70.552;2023-03-14T12:42:10;91999.53;;;22.89;54.25
17521;BME280;8878;-33.370;-70.552;2023-03-14T12:44:47;92006.22;;;22.95;54.70
17521;BME280;8878;-33.370;-70.552;2023-03-14T12:47:55;92001.03;;;23.02;55.11
17521;BME280;8878;-33.370;-70.552;2023-03-14T12:50:30;92003.16;;;23.09;54.34
17521;BME280;8878;-33.370;-70.552;2023-03-14T12:56:20;92001.25;;;23.40;54.46
17521;BME280;8878;-33.370;-70.552;2023-03-14T12:59:17;92001.44;;;23.63;53.38
17521;BME280;8878;-33.370;-70.552;2023-03-14T13:01:56;92004.75;;;23.57;53.38
17521;BME280;8878;-33.370;-70.552;2023-03-14T13:04:33;92012.34;;;23.23;53.88
17521;BME280;8878;-33.370;-70.552;2023-03-14T13:07:04;92016.72;;;23.59;53.32
17521;BME280;8878;-33.370;-70.552;2023-03-14T13:09:53;92010.13;;;23.72;53.13